El Vigia, Venezuela
Current Conditions -  °F | °C
As of 6:00 PM on Wednesday 22 Oct 2014 (Local Time) from SVMD Reporting Station
Haze Haze  
Wind Chill: 73°   Ceiling: 2000
Heat Index: 73°   Visibility: 6mi
Dew Point: 68°   Wind: 2mph
Humidity: 83%   Direction: 330°NNW
Pressure: 30.06"   Gusts: NA
Location:  8.63°N, 71.65°W
Report Text: SVMD 222200Z 33002KT 9000 VCBR BKN020 23/20 Q1018 RERA
Loading
Personal Weather Stations






























Interactive Weather Map New forecast layout! Learn more

10-Day Weather Forecast

Advertisements
Track Severe Weather on mobile